Time;durP1;ratioP1;P1;durP2;ratioP2;P2;SDS_P1;SDS_P2;PMS_P1;PMS_P2;Temp;Humidity;BMP_temperature;BMP_pressure;BME280_temperature;BME280_humidity;BME280_pressure;Samples;Min_cycle;Max_cycle;Signal;HPM_P1;HPM_P2
2023/12/11 00:00:08;;;;;;;21.70;3.50;;;10.40;99.90;;;;;;5091184;28;20663;-53
2023/12/11 00:02:34;;;;;;;19.15;3.65;;;10.40;99.90;;;;;;5091229;28;20169;-54
2023/12/11 00:05:00;;;;;;;20.33;4.43;;;10.40;99.90;;;;;;5091609;28;20176;-57
2023/12/11 00:07:26;;;;;;;22.30;5.03;;;10.40;99.90;;;;;;5091133;28;20177;-53
2023/12/11 00:09:51;;;;;;;18.10;3.88;;;10.40;99.90;;;;;;5091197;28;20254;-54
2023/12/11 00:12:17;;;;;;;16.45;3.03;;;10.50;99.90;;;;;;5091198;28;20173;-48
2023/12/11 00:14:43;;;;;;;9.55;2.97;;;10.50;99.90;;;;;;5105111;28;20173;-55
2023/12/11 00:17:09;;;;;;;32.50;4.30;;;10.50;99.90;;;;;;5111414;28;20623;-51
2023/12/11 00:19:34;;;;;;;20.63;3.70;;;10.50;99.90;;;;;;5111430;28;20515;-49
2023/12/11 00:22:00;;;;;;;16.00;3.70;;;10.50;99.90;;;;;;5111549;28;20172;-48
2023/12/11 00:24:26;;;;;;;14.43;3.47;;;10.60;99.90;;;;;;5111320;28;20165;-50
2023/12/11 00:26:52;;;;;;;19.48;3.97;;;10.50;99.90;;;;;;5111221;28;20176;-49
2023/12/11 00:29:17;;;;;;;10.85;3.25;;;10.50;99.90;;;;;;5111318;28;20165;-48
2023/12/11 00:31:43;;;;;;;20.75;4.30;;;10.60;99.90;;;;;;5111482;28;20228;-48
2023/12/11 00:34:08;;;;;;;22.50;5.03;;;10.50;99.90;;;;;;5111263;28;20168;-49
2023/12/11 00:36:34;;;;;;;16.73;3.72;;;10.50;99.90;;;;;;5111197;28;20217;-49
2023/12/11 00:39:00;;;;;;;12.50;3.28;;;10.50;99.90;;;;;;5112247;28;20165;-50
2023/12/11 00:41:25;;;;;;;16.20;3.70;;;10.50;99.90;;;;;;5114866;28;20190;-48
2023/12/11 00:43:51;;;;;;;15.90;3.55;;;10.60;99.90;;;;;;5107848;28;20174;-47
2023/12/11 00:46:24;;;;;;;20.55;3.40;;;10.50;99.90;;;;;;5094489;28;20555;-51
2023/12/11 00:48:50;;;;;;;20.10;3.28;;;10.60;99.90;;;;;;5094767;28;20269;-50
2023/12/11 00:51:20;;;;;;;9.52;2.67;;;10.60;99.90;;;;;;5094105;28;20213;-52
2023/12/11 00:53:47;;;;;;;13.80;3.63;;;10.60;99.90;;;;;;5094255;28;20583;-53
2023/12/11 00:56:13;;;;;;;20.30;3.78;;;10.70;99.90;;;;;;5094150;28;20635;-51
2023/12/11 00:58:38;;;;;;;26.13;4.30;;;10.60;99.90;;;;;;5094067;28;20704;-51
2023/12/11 01:01:04;;;;;;;16.52;3.38;;;10.60;99.90;;;;;;5094177;28;20264;-50
2023/12/11 01:03:30;;;;;;;14.48;2.85;;;10.60;99.90;;;;;;5094339;28;20204;-54
2023/12/11 01:05:55;;;;;;;17.35;3.85;;;10.60;99.90;;;;;;5094007;28;20169;-49
2023/12/11 01:08:21;;;;;;;16.80;4.07;;;10.60;99.90;;;;;;5093917;28;20169;-51
2023/12/11 01:10:47;;;;;;;20.73;4.00;;;10.60;99.90;;;;;;5094168;28;20284;-54
2023/12/11 01:13:12;;;;;;;16.38;3.35;;;10.60;99.90;;;;;;5075706;28;20688;-53
2023/12/11 01:15:38;;;;;;;11.32;2.70;;;10.60;99.90;;;;;;5093883;28;20221;-53
2023/12/11 01:18:03;;;;;;;13.82;4.00;;;10.60;99.90;;;;;;5093816;28;20534;-50
2023/12/11 01:20:29;;;;;;;17.42;4.60;;;10.60;99.90;;;;;;5094131;28;20246;-54
2023/12/11 01:22:55;;;;;;;15.43;4.25;;;10.70;99.90;;;;;;5093596;28;20247;-53
2023/12/11 01:25:20;;;;;;;14.45;3.80;;;10.80;99.90;;;;;;5093851;28;20181;-53
2023/12/11 01:27:46;;;;;;;22.23;3.42;;;10.80;99.90;;;;;;5093590;28;20165;-54
2023/12/11 01:30:11;;;;;;;17.90;3.28;;;10.80;99.90;;;;;;5093450;28;20207;-53
2023/12/11 01:32:37;;;;;;;9.88;3.33;;;10.70;99.90;;;;;;5093462;28;20168;-53
2023/12/11 01:35:03;;;;;;;20.00;3.72;;;10.70;99.90;;;;;;5093477;28;20192;-48
2023/12/11 01:37:29;;;;;;;17.17;3.42;;;10.70;99.90;;;;;;5093916;28;20180;-52
2023/12/11 01:39:54;;;;;;;15.68;3.53;;;10.70;99.90;;;;;;5093558;28;20180;-49
2023/12/11 01:42:20;;;;;;;16.27;3.28;;;10.70;99.90;;;;;;5099648;28;20176;-50
2023/12/11 01:44:45;;;;;;;21.00;3.35;;;10.70;99.90;;;;;;5113965;28;20563;-49
2023/12/11 01:47:11;;;;;;;21.15;3.63;;;10.70;99.90;;;;;;5113596;28;20627;-53
2023/12/11 01:49:37;;;;;;;14.02;3.17;;;10.60;99.90;;;;;;5113532;28;20256;-49
2023/12/11 01:52:05;;;;;;;10.90;2.97;;;10.70;99.90;;;;;;5112607;28;20282;-48
2023/12/11 01:54:31;;;;;;;18.90;3.50;;;10.70;99.90;;;;;;5113825;28;20164;-52
2023/12/11 01:56:57;;;;;;;14.98;3.17;;;10.70;99.90;;;;;;5113390;28;20165;-51
2023/12/11 01:59:22;;;;;;;23.77;4.28;;;10.70;99.90;;;;;;5113333;28;20920;-49
2023/12/11 02:01:49;;;;;;;18.20;3.95;;;10.70;99.90;;;;;;5113263;28;20168;-51
2023/12/11 02:04:15;;;;;;;24.63;5.03;;;10.70;99.90;;;;;;5113026;28;20187;-51
2023/12/11 02:06:41;;;;;;;17.48;3.58;;;10.70;99.90;;;;;;5113200;28;20157;-50
2023/12/11 02:09:08;;;;;;;30.90;3.42;;;10.80;99.90;;;;;;5113178;28;20165;-52
2023/12/11 02:11:33;;;;;;;10.68;3.20;;;10.80;99.90;;;;;;5096617;28;20208;-49
2023/12/11 02:13:59;;;;;;;8.90;2.50;;;10.90;99.90;;;;;;5093084;28;20173;-49
2023/12/11 02:16:25;;;;;;;14.32;2.80;;;10.90;99.90;;;;;;5092637;28;20169;-51
2023/12/11 02:18:50;;;;;;;11.13;3.22;;;10.80;99.90;;;;;;5092809;28;20565;-53
2023/12/11 02:21:16;;;;;;;14.50;2.70;;;10.90;99.90;;;;;;5092529;28;20165;-50
2023/12/11 02:24:09;;;;;;;22.48;3.67;;;10.80;99.90;;;;;;5092607;28;20549;-50
2023/12/11 02:26:34;;;;;;;11.23;2.85;;;10.80;99.90;;;;;;5092456;28;20215;-53
2023/12/11 02:29:00;;;;;;;18.52;3.33;;;10.80;99.90;;;;;;5092850;28;20169;-53
2023/12/11 02:31:25;;;;;;;23.88;3.00;;;10.80;99.90;;;;;;5092231;28;20235;-54
2023/12/11 02:33:51;;;;;;;13.77;2.88;;;10.80;99.90;;;;;;5092280;28;20161;-54
2023/12/11 02:36:17;;;;;;;18.92;3.38;;;10.80;99.90;;;;;;5092198;28;20169;-54
2023/12/11 02:38:42;;;;;;;16.23;3.45;;;10.90;99.90;;;;;;5092262;28;20499;-54
2023/12/11 02:41:08;;;;;;;20.17;3.63;;;10.80;99.90;;;;;;5092793;28;20173;-54
2023/12/11 02:43:34;;;;;;;16.70;2.95;;;10.80;99.90;;;;;;5092128;28;20156;-53
2023/12/11 02:46:00;;;;;;;18.50;3.58;;;10.80;99.90;;;;;;5092757;28;20176;-54
2023/12/11 02:48:25;;;;;;;30.60;5.43;;;10.80;99.90;;;;;;5092082;28;20169;-55
2023/12/11 02:50:51;;;;;;;16.02;3.58;;;10.80;99.90;;;;;;5091881;28;20691;-54
2023/12/11 02:53:16;;;;;;;21.77;3.33;;;10.80;99.90;;;;;;5091829;28;20731;-54
2023/12/11 02:55:42;;;;;;;23.08;3.90;;;10.90;99.90;;;;;;5091938;28;20169;-55
2023/12/11 02:58:08;;;;;;;18.67;3.30;;;10.90;99.90;;;;;;5091881;28;20165;-55
2023/12/11 03:00:33;;;;;;;12.68;3.30;;;10.90;99.90;;;;;;5091756;28;20165;-54
2023/12/11 03:02:59;;;;;;;17.50;4.05;;;10.90;99.90;;;;;;5091229;28;20171;-49
2023/12/11 03:05:25;;;;;;;15.20;3.15;;;10.80;99.90;;;;;;5091371;28;20158;-55
2023/12/11 03:07:50;;;;;;;12.50;3.05;;;10.90;99.90;;;;;;5091814;28;20161;-54
2023/12/11 03:10:16;;;;;;;21.00;2.72;;;10.90;99.90;;;;;;5103531;28;20200;-53
2023/12/11 03:12:42;;;;;;;15.30;3.80;;;10.90;99.90;;;;;;5112037;28;20161;-54
2023/12/11 03:15:09;;;;;;;24.00;3.95;;;11.00;99.90;;;;;;5111978;28;20173;-54
2023/12/11 03:17:34;;;;;;;7.97;2.38;;;10.90;99.90;;;;;;5111980;28;20172;-54
2023/12/11 03:20:00;;;;;;;13.23;2.63;;;10.90;99.90;;;;;;5112516;28;20169;-54
2023/12/11 03:22:26;;;;;;;17.83;4.05;;;10.80;99.90;;;;;;5111900;28;20161;-54
2023/12/11 03:24:52;;;;;;;17.20;3.78;;;10.80;99.90;;;;;;5112154;28;20196;-52
2023/12/11 03:27:20;;;;;;;14.75;3.67;;;10.80;99.90;;;;;;5093537;28;20206;-54
2023/12/11 03:29:46;;;;;;;14.57;2.13;;;10.90;99.90;;;;;;5111808;28;20214;-54
2023/12/11 03:32:11;;;;;;;12.70;3.30;;;10.90;99.90;;;;;;5111895;28;20164;-54
2023/12/11 03:34:37;;;;;;;13.18;2.55;;;10.90;99.90;;;;;;5111737;28;20600;-55
2023/12/11 03:37:03;;;;;;;16.05;3.28;;;10.80;99.90;;;;;;5111811;28;20737;-49
2023/12/11 03:39:28;;;;;;;13.68;2.75;;;10.80;99.90;;;;;;5105908;28;20526;-54
2023/12/11 03:41:54;;;;;;;12.68;2.70;;;10.80;99.90;;;;;;5101367;28;20168;-54
2023/12/11 03:44:20;;;;;;;10.82;2.90;;;10.80;99.90;;;;;;5111722;28;20183;-54
2023/12/11 03:46:46;;;;;;;13.35;3.10;;;10.70;99.90;;;;;;5111613;28;20176;-52
2023/12/11 03:49:16;;;;;;;19.73;3.42;;;10.70;99.90;;;;;;5111943;28;20209;-53
2023/12/11 03:51:45;;;;;;;17.33;3.45;;;10.80;99.90;;;;;;5111332;28;20231;-54
2023/12/11 03:54:10;;;;;;;10.13;2.58;;;10.80;99.90;;;;;;5097826;28;20543;-52
2023/12/11 03:56:38;;;;;;;12.35;3.50;;;10.90;99.90;;;;;;5091268;28;20170;-54
2023/12/11 03:59:04;;;;;;;20.77;3.60;;;10.80;99.90;;;;;;5091172;28;20165;-54
2023/12/11 04:01:29;;;;;;;9.80;2.67;;;10.80;99.90;;;;;;5091643;28;20165;-51
2023/12/11 04:03:55;;;;;;;10.63;2.30;;;10.90;99.90;;;;;;5091149;28;20174;-53
2023/12/11 04:06:21;;;;;;;7.82;3.17;;;10.90;99.90;;;;;;5091177;28;20617;-50
2023/12/11 04:08:46;;;;;;;13.63;2.90;;;10.80;99.90;;;;;;5091514;28;20178;-49
2023/12/11 04:11:12;;;;;;;8.80;2.42;;;10.90;99.90;;;;;;5090980;28;20204;-51
2023/12/11 04:13:38;;;;;;;12.15;2.72;;;10.80;99.90;;;;;;5091366;28;20192;-52
2023/12/11 04:16:04;;;;;;;15.00;3.78;;;10.80;99.90;;;;;;5095114;28;20624;-51
2023/12/11 04:18:30;;;;;;;13.20;2.63;;;10.70;99.90;;;;;;5095325;28;20252;-51
2023/12/11 04:20:57;;;;;;;14.35;2.50;;;10.70;99.90;;;;;;5095070;28;20173;-51
2023/12/11 04:23:23;;;;;;;12.23;2.60;;;10.70;99.90;;;;;;5095000;28;20169;-55
2023/12/11 04:25:49;;;;;;;14.07;3.58;;;10.70;99.90;;;;;;5094710;28;20173;-51
2023/12/11 04:28:14;;;;;;;9.25;2.05;;;10.70;99.90;;;;;;5094733;28;20157;-51
2023/12/11 04:30:40;;;;;;;13.30;3.95;;;10.80;99.90;;;;;;5094565;28;20698;-52
2023/12/11 04:33:05;;;;;;;15.23;3.53;;;10.80;99.90;;;;;;5094600;28;20169;-51
2023/12/11 04:35:31;;;;;;;10.57;2.85;;;10.80;99.90;;;;;;5094852;28;20161;-52
2023/12/11 04:37:56;;;;;;;13.55;3.15;;;10.90;99.90;;;;;;5094516;28;20313;-50
2023/12/11 04:40:22;;;;;;;11.85;2.80;;;10.90;99.90;;;;;;5110042;28;20184;-50
2023/12/11 04:42:47;;;;;;;11.43;2.55;;;10.90;99.90;;;;;;5114881;28;20172;-51
2023/12/11 04:45:13;;;;;;;14.35;3.80;;;10.90;99.90;;;;;;5114842;28;20617;-52
2023/12/11 04:47:39;;;;;;;13.07;3.03;;;10.90;99.90;;;;;;5114439;28;20269;-57
2023/12/11 04:50:05;;;;;;;10.90;2.67;;;10.90;99.90;;;;;;5114618;28;20644;-55
2023/12/11 04:52:30;;;;;;;17.50;2.80;;;10.80;99.90;;;;;;5114873;28;20234;-53
2023/12/11 04:54:57;;;;;;;11.00;2.97;;;10.80;99.90;;;;;;5114655;28;20167;-55
2023/12/11 04:57:22;;;;;;;11.30;1.98;;;10.70;99.90;;;;;;5114789;28;20175;-53
2023/12/11 04:59:48;;;;;;;10.35;2.72;;;10.80;99.90;;;;;;5114480;28;20524;-53
2023/12/11 05:02:14;;;;;;;17.17;3.33;;;10.60;99.90;;;;;;5114422;28;20187;-55
2023/12/11 05:04:40;;;;;;;12.27;3.40;;;10.50;99.90;;;;;;5114732;28;20252;-55
2023/12/11 05:07:06;;;;;;;10.07;3.05;;;10.50;99.90;;;;;;5114450;28;20165;-55
2023/12/11 05:09:32;;;;;;;17.45;3.50;;;10.50;99.90;;;;;;5106210;28;20174;-55
2023/12/11 05:11:57;;;;;;;17.50;3.00;;;10.50;99.90;;;;;;5106628;28;20208;-55
2023/12/11 05:14:23;;;;;;;13.02;3.47;;;10.40;99.90;;;;;;5114269;28;20168;-55
2023/12/11 05:16:49;;;;;;;18.80;3.47;;;10.40;99.90;;;;;;5114124;28;20635;-56
2023/12/11 05:19:14;;;;;;;12.40;3.50;;;10.40;99.90;;;;;;5114217;28;20298;-53
2023/12/11 05:21:44;;;;;;;9.05;2.67;;;10.30;99.90;;;;;;5114064;28;20164;-52
2023/12/11 05:24:12;;;;;;;13.55;3.28;;;10.30;99.90;;;;;;5114083;28;20192;-53
2023/12/11 05:26:38;;;;;;;8.00;1.95;;;10.20;99.90;;;;;;5112909;28;20222;-54
2023/12/11 05:29:04;;;;;;;17.27;2.95;;;10.20;99.90;;;;;;5113769;28;20221;-52
2023/12/11 05:31:30;;;;;;;24.08;3.97;;;10.20;99.90;;;;;;5114350;28;20215;-55
2023/12/11 05:33:56;;;;;;;15.50;3.13;;;10.20;99.90;;;;;;5114120;28;20168;-53
2023/12/11 05:36:22;;;;;;;14.75;3.58;;;10.20;99.90;;;;;;5113834;28;20207;-54
2023/12/11 05:38:48;;;;;;;20.95;2.97;;;10.00;99.90;;;;;;5093233;28;20188;-56
2023/12/11 05:41:13;;;;;;;15.15;2.88;;;10.00;99.90;;;;;;5093399;28;20158;-56
2023/12/11 05:43:39;;;;;;;16.75;3.92;;;10.00;99.90;;;;;;5093333;28;20252;-57
2023/12/11 05:46:06;;;;;;;6.88;1.88;;;9.90;99.90;;;;;;5093422;28;20262;-56
2023/12/11 05:48:31;;;;;;;12.20;3.45;;;9.70;99.90;;;;;;5075502;28;20178;-54
2023/12/11 05:50:57;;;;;;;15.82;2.47;;;9.80;99.90;;;;;;5093587;28;20201;-56
2023/12/11 05:53:23;;;;;;;12.40;2.55;;;9.80;99.90;;;;;;5092891;28;20692;-56
2023/12/11 05:55:48;;;;;;;7.32;2.22;;;9.60;99.90;;;;;;5093311;28;20214;-56
2023/12/11 05:58:14;;;;;;;13.68;3.15;;;9.80;99.90;;;;;;5092989;28;20164;-57
2023/12/11 06:00:39;;;;;;;11.32;3.10;;;9.60;99.90;;;;;;5092960;28;20162;-57
2023/12/11 06:03:05;;;;;;;8.45;2.08;;;9.70;99.90;;;;;;5092916;28;20256;-56
2023/12/11 06:05:30;;;;;;;13.65;3.20;;;9.80;99.90;;;;;;5093295;28;20231;-57
2023/12/11 06:07:56;;;;;;;9.25;3.40;;;11.50;99.90;;;;;;5092885;28;20173;-56
2023/12/11 06:10:22;;;;;;;10.35;2.40;;;9.80;99.90;;;;;;5108611;28;20680;-56
2023/12/11 06:12:47;;;;;;;14.38;3.67;;;9.90;99.90;;;;;;5104052;28;20208;-56
2023/12/11 06:15:13;;;;;;;17.25;3.17;;;9.90;99.90;;;;;;5112998;28;20168;-56
2023/12/11 06:17:38;;;;;;;4.32;1.80;;;9.80;99.90;;;;;;5112843;28;20175;-56
2023/12/11 06:20:05;;;;;;;14.70;3.50;;;9.80;99.90;;;;;;5112928;28;20161;-57
2023/12/11 06:22:30;;;;;;;13.85;2.47;;;9.70;99.90;;;;;;5113186;28;20244;-55
2023/12/11 06:24:56;;;;;;;15.00;2.83;;;9.80;99.90;;;;;;5112595;28;20276;-54
2023/12/11 06:27:24;;;;;;;15.43;2.80;;;9.80;99.90;;;;;;5112669;28;20161;-56
2023/12/11 06:29:50;;;;;;;9.90;2.38;;;9.80;99.90;;;;;;5112456;28;20169;-57
2023/12/11 06:32:15;;;;;;;7.45;1.50;;;9.90;99.90;;;;;;5112545;28;20317;-56
2023/12/11 06:34:41;;;;;;;19.33;2.58;;;9.90;99.90;;;;;;5112414;28;20169;-56
2023/12/11 06:37:06;;;;;;;8.25;2.47;;;10.00;99.90;;;;;;5112238;28;20226;-55
2023/12/11 06:39:32;;;;;;;13.23;2.72;;;10.00;99.90;;;;;;5112278;28;20169;-53
2023/12/11 06:41:58;;;;;;;15.75;2.58;;;9.90;99.90;;;;;;5111951;28;20615;-55
2023/12/11 06:44:24;;;;;;;8.88;2.17;;;10.00;99.90;;;;;;5112165;28;20164;-57
2023/12/11 06:46:49;;;;;;;10.15;2.20;;;10.00;99.90;;;;;;5093664;28;20172;-55
2023/12/11 06:49:15;;;;;;;8.23;2.03;;;10.00;99.90;;;;;;5111928;28;20168;-56
2023/12/11 06:51:40;;;;;;;8.27;2.60;;;10.00;99.90;;;;;;5111492;28;20220;-56
2023/12/11 06:54:07;;;;;;;11.63;2.92;;;10.00;99.90;;;;;;5111657;28;20528;-56
2023/12/11 06:56:33;;;;;;;8.75;2.90;;;10.00;99.90;;;;;;5111893;28;20249;-56
2023/12/11 06:58:59;;;;;;;9.00;2.28;;;10.00;99.90;;;;;;5112316;28;20220;-56
2023/12/11 07:01:29;;;;;;;18.15;3.65;;;10.00;99.90;;;;;;5111724;28;20243;-56
2023/12/11 07:03:55;;;;;;;13.85;2.53;;;10.00;99.90;;;;;;5111867;28;20161;-56
2023/12/11 07:06:20;;;;;;;16.92;2.83;;;10.00;99.90;;;;;;5111693;28;20184;-56
2023/12/11 07:08:46;;;;;;;7.30;1.98;;;10.00;99.90;;;;;;5104891;28;20564;-56
2023/12/11 07:11:11;;;;;;;10.45;3.17;;;10.00;99.90;;;;;;5091063;28;20644;-56
2023/12/11 07:13:37;;;;;;;9.98;3.10;;;10.10;99.90;;;;;;5091514;28;20169;-56
2023/12/11 07:16:03;;;;;;;14.55;3.08;;;10.20;99.90;;;;;;5091012;28;20642;-56
2023/12/11 07:18:28;;;;;;;11.20;2.58;;;10.20;99.90;;;;;;5108765;28;20259;-53
2023/12/11 07:20:54;;;;;;;9.68;2.33;;;10.20;99.90;;;;;;5111257;28;20168;-55
2023/12/11 07:23:20;;;;;;;7.07;2.20;;;10.20;99.90;;;;;;5111564;28;20530;-56
2023/12/11 07:25:47;;;;;;;10.35;2.47;;;10.30;99.90;;;;;;5111218;28;20258;-56
2023/12/11 07:28:13;;;;;;;14.98;3.20;;;10.20;99.90;;;;;;5111510;28;20172;-54
2023/12/11 07:30:39;;;;;;;12.07;2.63;;;10.30;99.90;;;;;;5111421;28;20287;-54
2023/12/11 07:33:05;;;;;;;15.00;2.97;;;10.30;99.90;;;;;;5111193;28;20600;-55
2023/12/11 07:35:31;;;;;;;17.50;2.83;;;10.40;99.90;;;;;;5111608;28;20171;-54
2023/12/11 07:37:56;;;;;;;13.48;2.40;;;10.40;99.90;;;;;;5111113;28;20620;-56
2023/12/11 07:40:22;;;;;;;9.93;2.10;;;10.40;99.90;;;;;;5091376;28;20233;-56
2023/12/11 07:42:48;;;;;;;13.07;2.70;;;10.50;99.90;;;;;;5091041;28;20166;-53
2023/12/11 07:45:14;;;;;;;8.52;2.65;;;10.60;99.90;;;;;;5090774;28;20173;-56
2023/12/11 07:47:40;;;;;;;7.80;2.08;;;10.50;99.90;;;;;;5090768;28;20166;-56
2023/12/11 07:50:05;;;;;;;12.40;1.98;;;10.50;99.90;;;;;;5093206;28;20164;-56
2023/12/11 07:52:31;;;;;;;13.23;2.53;;;10.50;99.90;;;;;;5095074;28;20649;-55
2023/12/11 07:54:59;;;;;;;11.85;1.80;;;10.60;99.90;;;;;;5095228;28;20165;-56
2023/12/11 07:57:25;;;;;;;13.55;3.58;;;10.60;99.90;;;;;;5094620;28;20170;-56
2023/12/11 07:59:51;;;;;;;17.30;3.95;;;10.60;99.90;;;;;;5094922;28;20170;-56
2023/12/11 08:02:16;;;;;;;12.85;3.55;;;10.60;99.90;;;;;;5094676;28;20637;-56
2023/12/11 08:04:42;;;;;;;14.82;2.83;;;10.60;99.90;;;;;;5094677;28;20203;-56
2023/12/11 08:07:08;;;;;;;14.30;3.10;;;10.50;99.90;;;;;;5094494;28;20505;-56
2023/12/11 08:09:37;;;;;;;16.30;3.17;;;10.60;99.90;;;;;;5109626;28;20217;-56
2023/12/11 08:12:03;;;;;;;10.93;3.72;;;10.60;99.90;;;;;;5114260;28;20208;-50
2023/12/11 08:14:28;;;;;;;13.93;2.47;;;10.60;99.90;;;;;;5115225;28;20164;-51
2023/12/11 08:16:54;;;;;;;11.10;3.22;;;10.60;99.90;;;;;;5114683;28;20180;-52
2023/12/11 08:19:20;;;;;;;15.63;3.85;;;10.70;99.90;;;;;;5114810;28;20165;-54
2023/12/11 08:21:45;;;;;;;7.90;2.15;;;10.70;99.90;;;;;;5114649;28;20659;-55
2023/12/11 08:24:12;;;;;;;11.98;2.67;;;10.70;99.90;;;;;;5114587;28;20176;-53
2023/12/11 08:26:37;;;;;;;15.95;3.28;;;10.70;99.90;;;;;;5114927;28;20261;-54
2023/12/11 08:29:03;;;;;;;14.50;2.38;;;10.70;99.90;;;;;;5114926;28;20173;-54
2023/12/11 08:31:28;;;;;;;9.55;2.70;;;10.70;99.90;;;;;;5114680;28;20230;-51
2023/12/11 08:33:54;;;;;;;12.10;2.60;;;10.80;99.90;;;;;;5114635;28;20517;-51
2023/12/11 08:36:20;;;;;;;12.82;2.83;;;10.70;99.90;;;;;;5114335;28;20663;-54
2023/12/11 08:38:45;;;;;;;9.63;2.50;;;10.90;99.90;;;;;;5105830;28;20248;-56
2023/12/11 08:41:11;;;;;;;7.18;1.95;;;10.70;99.90;;;;;;5093864;28;20582;-55
2023/12/11 08:43:36;;;;;;;15.93;3.00;;;10.70;99.90;;;;;;5093857;28;20226;-55
2023/12/11 08:46:02;;;;;;;11.50;2.97;;;10.70;99.90;;;;;;5094005;28;20169;-55
2023/12/11 08:48:28;;;;;;;9.75;2.60;;;10.80;99.90;;;;;;5094582;28;20525;-56
2023/12/11 08:50:53;;;;;;;11.63;3.17;;;10.70;99.90;;;;;;5093699;28;20296;-56
2023/12/11 08:53:23;;;;;;;15.18;3.35;;;10.70;99.90;;;;;;5093398;28;20217;-57
2023/12/11 08:55:49;;;;;;;14.88;2.83;;;10.80;99.90;;;;;;5093585;28;20184;-56
2023/12/11 08:58:15;;;;;;;17.80;3.05;;;10.80;99.90;;;;;;5093754;28;20165;-58
2023/12/11 09:00:42;;;;;;;7.50;2.22;;;10.80;99.90;;;;;;5093480;28;20165;-58
2023/12/11 09:03:07;;;;;;;12.30;2.30;;;10.80;99.90;;;;;;5093420;28;20531;-58
2023/12/11 09:05:33;;;;;;;10.55;2.80;;;10.80;99.90;;;;;;5093517;28;20165;-58
2023/12/11 09:07:59;;;;;;;20.20;2.97;;;10.80;99.90;;;;;;5097670;28;20179;-58
2023/12/11 09:10:24;;;;;;;16.48;3.25;;;10.80;99.90;;;;;;5113937;28;20199;-58
2023/12/11 09:12:50;;;;;;;22.67;3.17;;;10.80;99.90;;;;;;5113560;28;20172;-58
2023/12/11 09:15:17;;;;;;;11.25;3.10;;;10.90;99.90;;;;;;5113632;28;20210;-58
2023/12/11 09:17:43;;;;;;;9.52;2.58;;;10.90;99.90;;;;;;5113754;28;20168;-58
2023/12/11 09:20:09;;;;;;;14.02;3.25;;;10.90;99.90;;;;;;5113208;28;20632;-56
2023/12/11 09:22:37;;;;;;;8.45;3.08;;;10.90;99.90;;;;;;5113683;28;20245;-58
2023/12/11 09:25:03;;;;;;;16.08;3.03;;;10.90;99.90;;;;;;5097565;28;20170;-57
2023/12/11 09:27:28;;;;;;;11.93;2.95;;;10.90;99.90;;;;;;5093414;28;20165;-58
2023/12/11 09:29:54;;;;;;;12.30;3.22;;;10.90;99.90;;;;;;5074831;28;20679;-59
2023/12/11 09:32:19;;;;;;;8.07;2.67;;;10.90;99.90;;;;;;5098971;28;20165;-59
2023/12/11 09:34:46;;;;;;;25.38;2.90;;;10.90;99.90;;;;;;5113118;28;20169;-59
2023/12/11 09:37:11;;;;;;;17.60;3.63;;;10.90;99.90;;;;;;5113217;28;20161;-57
2023/12/11 09:39:38;;;;;;;11.93;3.15;;;10.90;99.90;;;;;;5113195;28;20190;-57
2023/12/11 09:42:07;;;;;;;10.30;3.45;;;10.90;99.90;;;;;;5112859;28;20172;-59
2023/12/11 09:44:33;;;;;;;13.57;3.08;;;10.90;99.90;;;;;;5113263;28;20492;-55
2023/12/11 09:47:09;;;;;;;13.57;2.92;;;10.90;99.90;;;;;;5095306;28;20168;-58
2023/12/11 09:49:34;;;;;;;6.78;2.08;;;10.90;99.90;;;;;;5112877;28;20156;-57
2023/12/11 09:52:01;;;;;;;17.10;3.75;;;10.90;99.90;;;;;;5113223;28;20346;-56
2023/12/11 09:54:27;;;;;;;11.48;2.47;;;11.00;99.90;;;;;;5113228;28;20161;-55
2023/12/11 09:56:53;;;;;;;16.98;2.83;;;10.90;99.90;;;;;;5112964;28;20172;-59
2023/12/11 09:59:20;;;;;;;9.82;2.45;;;10.90;99.90;;;;;;5112983;28;20173;-54
2023/12/11 10:01:47;;;;;;;13.80;2.97;;;10.90;99.90;;;;;;5112363;28;20160;-59
2023/12/11 10:04:13;;;;;;;13.10;2.88;;;10.80;99.90;;;;;;5112639;28;20180;-57
2023/12/11 10:06:40;;;;;;;10.13;2.40;;;10.80;99.90;;;;;;5112936;28;20665;-58
2023/12/11 10:09:06;;;;;;;15.35;3.38;;;10.80;99.90;;;;;;5112719;28;20164;-56
2023/12/11 10:11:32;;;;;;;12.23;2.97;;;10.70;99.90;;;;;;5112291;28;20203;-59
2023/12/11 10:14:12;;;;;;;11.68;2.80;;;10.70;99.90;;;;;;5112744;28;20186;-59
2023/12/11 10:16:37;;;;;;;18.00;3.97;;;10.70;99.90;;;;;;5112656;28;20184;-58
2023/12/11 10:19:03;;;;;;;7.38;2.00;;;10.60;99.90;;;;;;5112325;28;20167;-57
2023/12/11 10:21:40;;;;;;;22.73;2.88;;;10.50;99.90;;;;;;5112780;28;20190;-58
2023/12/11 10:24:09;;;;;;;11.93;3.15;;;10.40;99.90;;;;;;5112377;28;20161;-59
2023/12/11 10:26:43;;;;;;;12.93;2.80;;;10.40;99.90;;;;;;5112513;28;20252;-57
2023/12/11 10:29:26;;;;;;;19.02;3.35;;;10.30;99.90;;;;;;5112328;28;20160;-58
2023/12/11 10:32:00;;;;;;;14.18;3.65;;;10.10;99.90;;;;;;5110281;28;20219;-56
2023/12/11 10:34:42;;;;;;;9.95;2.47;;;10.20;99.90;;;;;;5091699;28;20191;-59
2023/12/11 10:37:14;;;;;;;12.63;2.70;;;10.00;99.90;;;;;;5091758;28;20165;-58
2023/12/11 10:39:53;;;;;;;11.35;3.30;;;10.10;99.90;;;;;;5091720;28;20499;-56
2023/12/11 10:42:19;;;;;;;18.42;3.58;;;10.10;99.90;;;;;;5091748;28;20165;-56
2023/12/11 10:44:45;;;;;;;11.30;2.40;;;10.10;99.90;;;;;;5091559;28;20172;-56
2023/12/11 10:47:10;;;;;;;8.98;2.38;;;10.10;99.90;;;;;;5091821;28;20202;-55
2023/12/11 10:49:36;;;;;;;12.65;2.95;;;10.10;99.90;;;;;;5092056;28;20562;-52
2023/12/11 10:52:02;;;;;;;6.90;2.60;;;10.20;99.90;;;;;;5091042;28;20303;-54
2023/12/11 10:54:29;;;;;;;16.70;3.13;;;10.10;99.90;;;;;;5091818;28;20176;-57
2023/12/11 10:56:56;;;;;;;16.95;3.17;;;10.30;99.90;;;;;;5091320;28;20206;-53
2023/12/11 10:59:22;;;;;;;16.20;4.10;;;10.40;99.90;;;;;;5091194;28;20177;-55
2023/12/11 11:01:49;;;;;;;6.32;2.03;;;10.40;99.90;;;;;;5094594;28;20169;-60
2023/12/11 11:04:18;;;;;;;14.43;3.53;;;10.40;99.90;;;;;;5101129;28;20264;-63
2023/12/11 11:06:55;;;;;;;8.95;2.92;;;10.50;99.90;;;;;;5089953;28;20184;-64
2023/12/11 11:09:33;;;;;;;13.70;3.78;;;10.50;99.90;;;;;;5072563;28;20165;-52
2023/12/11 11:12:07;;;;;;;11.70;2.78;;;10.50;99.90;;;;;;5089230;28;20224;-56
2023/12/11 11:14:48;;;;;;;15.35;2.75;;;10.40;99.90;;;;;;5089597;28;20163;-55
2023/12/11 11:17:15;;;;;;;15.98;3.50;;;10.60;99.90;;;;;;5089464;28;20167;-63
2023/12/11 11:20:14;;;;;;;17.05;3.92;;;10.50;99.90;;;;;;5089738;28;20264;-63
2023/12/11 11:22:40;;;;;;;10.25;2.97;;;10.50;99.90;;;;;;5089636;28;20161;-57
2023/12/11 11:25:41;;;;;;;14.10;2.78;;;10.50;99.90;;;;;;5088616;28;20162;-62
2023/12/11 11:28:40;;;;;;;15.65;3.00;;;10.60;99.90;;;;;;5007237;28;20273;-62
2023/12/11 11:31:07;;;;;;;9.38;2.42;;;10.50;99.90;;;;;;5089513;28;20297;-57
2023/12/11 11:33:46;;;;;;;9.15;3.08;;;10.60;99.90;;;;;;5089792;28;20165;-53
2023/12/11 11:36:15;;;;;;;11.32;2.40;;;10.50;99.90;;;;;;5104932;28;20498;-58
2023/12/11 11:39:01;;;;;;;9.45;2.67;;;10.50;99.90;;;;;;5110021;28;20251;-58
2023/12/11 11:41:29;;;;;;;13.02;2.90;;;10.40;99.90;;;;;;5109526;28;20172;-58
2023/12/11 11:44:05;;;;;;;14.13;3.25;;;10.40;99.90;;;;;;5109689;28;20160;-57
2023/12/11 11:46:53;;;;;;;19.77;3.05;;;10.30;99.90;;;;;;5108799;28;20882;-58
2023/12/11 11:49:26;;;;;;;13.52;2.80;;;10.20;99.90;;;;;;5109790;28;20157;-59
2023/12/11 11:51:52;;;;;;;11.63;2.85;;;10.20;99.90;;;;;;5109613;28;20224;-56
2023/12/11 11:54:21;;;;;;;12.02;2.75;;;10.20;99.90;;;;;;5109433;28;20259;-57
2023/12/11 11:56:46;;;;;;;14.15;2.33;;;10.00;99.90;;;;;;5109799;28;20169;-58
2023/12/11 11:59:12;;;;;;;6.97;2.42;;;10.10;99.90;;;;;;5109917;28;20704;-56
2023/12/11 12:01:50;;;;;;;11.77;2.80;;;10.00;99.90;;;;;;5105619;28;20176;-59
2023/12/11 12:04:26;;;;;;;14.38;3.45;;;10.10;99.90;;;;;;5089345;28;20588;-55
2023/12/11 12:06:55;;;;;;;15.73;3.25;;;10.10;99.90;;;;;;5089319;28;20218;-48
2023/12/11 12:09:20;;;;;;;13.65;2.50;;;10.20;99.90;;;;;;5071759;28;20651;-58
2023/12/11 12:11:46;;;;;;;13.48;2.70;;;10.30;99.90;;;;;;5088922;28;20209;-57
2023/12/11 12:14:15;;;;;;;6.10;2.25;;;10.00;99.90;;;;;;5088931;28;20166;-58
2023/12/11 12:16:40;;;;;;;7.00;2.00;;;10.20;99.90;;;;;;5088832;28;20265;-58
2023/12/11 12:19:06;;;;;;;9.30;2.55;;;10.10;99.90;;;;;;5089243;28;20253;-59
2023/12/11 12:21:45;;;;;;;12.32;3.05;;;10.00;99.90;;;;;;5089250;28;20267;-54
2023/12/11 12:24:10;;;;;;;7.97;2.10;;;10.10;99.90;;;;;;5070845;28;20177;-59
2023/12/11 12:26:36;;;;;;;8.75;2.60;;;10.10;99.90;;;;;;5088210;28;20280;-58
2023/12/11 12:29:03;;;;;;;6.70;1.70;;;10.10;99.90;;;;;;5089089;28;20539;-57
2023/12/11 12:31:30;;;;;;;2.83;1.20;;;10.00;99.90;;;;;;5105607;28;20253;-58
2023/12/11 12:33:56;;;;;;;12.05;1.98;;;10.00;99.90;;;;;;5089003;28;20214;-58
2023/12/11 12:36:22;;;;;;;2.75;1.20;;;10.00;99.90;;;;;;5091459;28;20165;-56
2023/12/11 12:38:48;;;;;;;9.02;2.42;;;10.10;99.90;;;;;;5092427;28;20165;-58